Meyersville, Texas
Current Conditions -  °F | °C
As of 5:51 PM on Monday 24 Nov 2014 (Local Time) from KVCT Reporting Station
Few Clouds Few Clouds  
Wind Chill: 59°   Ceiling: Unl
Heat Index: 59°   Visibility: 10mi
Dew Point: 40°   Wind: 6mph
Humidity: 49%   Direction: 10°N
Pressure: 30.05"   Gusts: NA
Location:  28.93°N, 97.31°W
Report Text: KVCT 242351Z 01005KT 10SM FEW120 15/04 A3005 RMK AO2 SLP176 T01500044 10206 20150 53009
Loading
Personal Weather Stations






























Interactive Weather Map New forecast layout! Learn more

10-Day Weather Forecast

Advertisements
Track Severe Weather on mobile